createdAt,value
2018-07-26T00:01:56.135Z,23.90
2018-07-26T00:04:25.593Z,23.80
2018-07-26T00:06:55.038Z,23.80
2018-07-26T00:09:24.596Z,23.80
2018-07-26T00:11:54.039Z,23.80
2018-07-26T00:14:23.464Z,23.80
2018-07-26T00:16:52.838Z,23.80
2018-07-26T00:19:22.342Z,23.80
2018-07-26T00:21:51.860Z,23.70
2018-07-26T00:24:21.319Z,23.70
2018-07-26T00:26:50.764Z,23.70
2018-07-26T00:29:20.330Z,23.70
2018-07-26T00:31:50.078Z,23.60
2018-07-26T00:34:19.679Z,23.70
2018-07-26T00:36:49.218Z,23.60
2018-07-26T00:39:18.864Z,23.60
2018-07-26T00:41:48.296Z,23.60
2018-07-26T00:44:17.905Z,23.60
2018-07-26T00:46:47.444Z,23.50
2018-07-26T00:49:16.936Z,23.50
2018-07-26T00:51:46.456Z,23.50
2018-07-26T00:54:15.927Z,23.50
2018-07-26T00:56:45.457Z,23.50
2018-07-26T00:59:14.885Z,23.50
2018-07-26T01:01:44.493Z,23.40
2018-07-26T01:04:14.131Z,23.40
2018-07-26T01:06:43.732Z,23.40
2018-07-26T01:09:13.609Z,23.40
2018-07-26T01:11:43.095Z,23.40
2018-07-26T01:14:12.471Z,23.30
2018-07-26T01:16:42.064Z,23.30
2018-07-26T01:19:11.849Z,23.30
2018-07-26T01:21:41.317Z,23.30
2018-07-26T01:24:10.976Z,23.30
2018-07-26T01:26:40.481Z,23.20
2018-07-26T01:29:10.154Z,23.30
2018-07-26T01:31:40.000Z,23.30
2018-07-26T01:34:09.612Z,23.30
2018-07-26T01:36:39.062Z,23.20
2018-07-26T01:39:09.815Z,23.20
2018-07-26T01:41:39.570Z,23.20
2018-07-26T01:44:24.064Z,23.20
2018-07-26T01:46:53.489Z,23.20
2018-07-26T01:49:23.325Z,23.20
2018-07-26T01:51:52.957Z,23.10
2018-07-26T01:54:22.525Z,23.10
2018-07-26T01:56:52.108Z,23.10
2018-07-26T01:59:21.967Z,23.10
2018-07-26T02:01:51.767Z,23.10
2018-07-26T02:04:21.322Z,23.10
2018-07-26T02:06:50.969Z,23.10
2018-07-26T02:09:20.500Z,23.00
2018-07-26T02:11:50.019Z,22.70
2018-07-26T02:14:24.773Z,22.80
2018-07-26T02:16:54.431Z,22.80
2018-07-26T02:19:24.672Z,22.90
2018-07-26T02:21:54.218Z,23.00
2018-07-26T02:24:23.767Z,23.00
2018-07-26T02:26:53.353Z,23.00
2018-07-26T02:29:22.799Z,23.00
2018-07-26T02:31:52.508Z,23.00
2018-07-26T02:34:22.213Z,23.00
2018-07-26T02:36:51.755Z,23.00
2018-07-26T02:39:21.345Z,23.00
2018-07-26T02:41:50.738Z,23.00
2018-07-26T02:44:20.357Z,22.90
2018-07-26T02:46:49.990Z,22.90
2018-07-26T02:49:19.486Z,22.70
2018-07-26T02:51:48.954Z,22.70
2018-07-26T02:54:19.511Z,22.80
2018-07-26T02:56:48.969Z,22.80
2018-07-26T02:59:18.667Z,22.80
2018-07-26T03:01:48.329Z,22.80
2018-07-26T03:04:17.878Z,22.80
2018-07-26T03:06:47.560Z,22.80
2018-07-26T03:09:16.971Z,22.80
2018-07-26T03:11:46.407Z,22.80
2018-07-26T03:14:15.950Z,22.80
2018-07-26T03:16:45.620Z,22.70
2018-07-26T03:19:15.182Z,22.70
2018-07-26T03:21:44.827Z,22.70
2018-07-26T03:24:14.346Z,22.70
2018-07-26T03:26:43.777Z,22.70
2018-07-26T03:29:13.366Z,22.70
2018-07-26T03:31:42.760Z,22.60
2018-07-26T03:34:12.287Z,22.60
2018-07-26T03:36:41.981Z,22.60
2018-07-26T03:39:11.427Z,22.60
2018-07-26T03:41:40.907Z,22.60
2018-07-26T03:44:10.624Z,22.60
2018-07-26T03:46:40.233Z,22.60
2018-07-26T03:49:10.336Z,22.60
2018-07-26T03:51:39.816Z,22.30
2018-07-26T03:54:09.476Z,22.30
2018-07-26T03:56:39.045Z,22.40
2018-07-26T03:59:08.704Z,22.50
2018-07-26T04:01:38.289Z,22.50
2018-07-26T04:04:09.743Z,22.50
2018-07-26T04:06:39.461Z,22.50
2018-07-26T04:09:14.211Z,22.50
2018-07-26T04:11:45.551Z,22.50
2018-07-26T04:14:15.081Z,22.50
2018-07-26T04:16:44.593Z,22.50
2018-07-26T04:19:14.019Z,22.50
2018-07-26T04:21:43.700Z,22.40
2018-07-26T04:24:13.383Z,22.50
2018-07-26T04:26:42.896Z,22.40
2018-07-26T04:29:12.394Z,22.40
2018-07-26T04:31:41.897Z,22.50
2018-07-26T04:34:11.274Z,22.40
2018-07-26T04:36:40.758Z,22.50
2018-07-26T04:39:10.794Z,22.50
2018-07-26T04:41:40.350Z,22.50
2018-07-26T04:44:09.895Z,22.50
2018-07-26T04:46:39.540Z,22.50
2018-07-26T04:49:09.109Z,22.50
2018-07-26T04:51:38.971Z,22.50
2018-07-26T04:54:08.782Z,22.50
2018-07-26T04:56:38.643Z,22.60
2018-07-26T04:59:08.511Z,22.60
2018-07-26T05:01:38.015Z,22.60
2018-07-26T05:04:07.640Z,22.70
2018-07-26T05:06:37.044Z,22.70
2018-07-26T05:09:09.691Z,22.80
2018-07-26T05:11:39.071Z,22.80
2018-07-26T05:14:08.448Z,22.90
2018-07-26T05:16:37.928Z,22.90
2018-07-26T05:19:07.748Z,23.00
2018-07-26T05:21:37.472Z,23.00
2018-07-26T05:24:09.394Z,23.10
2018-07-26T05:26:39.658Z,23.20
2018-07-26T05:29:09.483Z,23.20
2018-07-26T05:31:38.939Z,23.30
2018-07-26T05:34:08.506Z,23.40
2018-07-26T05:36:37.958Z,23.40
2018-07-26T05:39:10.605Z,23.20
2018-07-26T05:41:40.449Z,23.30
2018-07-26T05:44:10.105Z,23.50
2018-07-26T05:46:39.999Z,23.60
2018-07-26T05:53:14.404Z,23.70
2018-07-26T05:55:44.332Z,23.90
2018-07-26T05:58:13.950Z,23.90
2018-07-26T06:00:43.324Z,24.00
2018-07-26T06:03:18.952Z,24.00
2018-07-26T06:05:48.987Z,24.00
2018-07-26T06:11:11.013Z,24.10
2018-07-26T06:13:40.798Z,24.20
2018-07-26T06:16:10.626Z,24.20
2018-07-26T06:18:40.078Z,24.20
2018-07-26T06:21:09.741Z,24.20
2018-07-26T06:23:39.432Z,24.30
2018-07-26T06:26:09.044Z,24.30
2018-07-26T06:28:39.106Z,24.30
2018-07-26T06:31:08.836Z,24.30
2018-07-26T06:33:38.377Z,24.40
2018-07-26T06:36:08.214Z,24.50
2018-07-26T06:38:38.104Z,24.40
2018-07-26T06:43:48.930Z,24.50
2018-07-26T06:46:18.354Z,24.60
2018-07-26T06:48:49.258Z,24.60
2018-07-26T06:51:18.952Z,24.60
2018-07-26T06:53:48.440Z,24.60
2018-07-26T06:56:18.326Z,24.70
2018-07-26T06:58:47.697Z,24.70
2018-07-26T07:01:17.728Z,24.80
2018-07-26T07:03:47.350Z,24.80
2018-07-26T07:06:16.774Z,24.90
2018-07-26T07:08:46.260Z,24.90
2018-07-26T07:11:16.147Z,25.00
2018-07-26T07:13:47.988Z,25.00
2018-07-26T07:16:17.447Z,25.10
2018-07-26T07:22:03.198Z,25.20
2018-07-26T07:24:32.690Z,25.20
2018-07-26T07:27:02.196Z,25.30
2018-07-26T07:29:32.030Z,25.30
2018-07-26T07:32:01.904Z,25.40
2018-07-26T07:34:31.864Z,25.40
2018-07-26T07:37:01.932Z,25.50
2018-07-26T07:39:31.677Z,25.50
2018-07-26T07:42:01.930Z,25.60
2018-07-26T07:44:31.587Z,25.60
2018-07-26T07:47:01.426Z,25.70
2018-07-26T07:49:31.054Z,25.70
2018-07-26T07:52:01.514Z,25.80
2018-07-26T07:54:31.384Z,25.80
2018-07-26T07:57:01.773Z,25.80
2018-07-26T07:59:31.786Z,25.90
2018-07-26T08:02:01.511Z,25.90
2018-07-26T08:04:32.752Z,26.00
2018-07-26T08:07:03.410Z,26.00
2018-07-26T08:09:34.354Z,26.10
2018-07-26T08:12:03.980Z,26.10
2018-07-26T08:14:33.652Z,26.10
2018-07-26T08:17:03.182Z,26.20
2018-07-26T08:19:33.568Z,26.20
2018-07-26T08:22:03.126Z,26.30
2018-07-26T08:24:32.513Z,26.40
2018-07-26T08:27:01.889Z,26.40
2018-07-26T08:29:33.027Z,26.50
2018-07-26T08:32:03.166Z,26.50
2018-07-26T08:34:32.685Z,26.60
2018-07-26T08:37:02.165Z,26.70
2018-07-26T08:39:32.149Z,26.70
2018-07-26T08:42:01.599Z,26.70
2018-07-26T08:44:33.006Z,26.80
2018-07-26T08:47:02.844Z,26.80
2018-07-26T08:49:32.314Z,26.90
2018-07-26T08:52:01.823Z,27.00
2018-07-26T08:54:31.174Z,27.10
2018-07-26T08:57:00.641Z,27.10
2018-07-26T08:59:30.092Z,27.20
2018-07-26T09:02:00.034Z,27.20
2018-07-26T09:04:29.850Z,27.30
2018-07-26T09:06:59.534Z,27.30
2018-07-26T09:09:29.016Z,27.40
2018-07-26T09:11:58.458Z,27.40
2018-07-26T09:14:28.176Z,27.50
2018-07-26T09:16:57.704Z,27.50
2018-07-26T09:19:27.517Z,27.50
2018-07-26T09:21:57.242Z,27.50
2018-07-26T09:24:27.356Z,27.60
2018-07-26T09:26:57.329Z,27.60
2018-07-26T09:29:27.051Z,27.60
2018-07-26T09:31:56.502Z,27.60
2018-07-26T09:34:26.488Z,27.60
2018-07-26T09:36:56.988Z,27.60
2018-07-26T09:39:26.533Z,27.60
2018-07-26T09:41:56.080Z,27.60
2018-07-26T09:47:08.485Z,27.70
2018-07-26T09:49:37.931Z,27.70
2018-07-26T09:52:08.148Z,27.70
2018-07-26T09:54:37.679Z,27.70
2018-07-26T09:57:07.247Z,27.70
2018-07-26T09:59:37.018Z,27.70
2018-07-26T10:02:06.407Z,27.70
2018-07-26T10:04:36.127Z,27.70
2018-07-26T10:07:05.556Z,27.70
2018-07-26T10:09:35.038Z,27.80
2018-07-26T10:12:04.655Z,27.80
2018-07-26T10:14:35.697Z,27.90
2018-07-26T10:17:06.433Z,27.90
2018-07-26T10:19:35.886Z,27.90
2018-07-26T10:22:05.341Z,27.90
2018-07-26T10:24:35.570Z,28.00
2018-07-26T10:27:05.092Z,28.00
2018-07-26T10:29:34.511Z,28.00
2018-07-26T10:32:04.325Z,27.90
2018-07-26T10:34:33.840Z,27.90
2018-07-26T10:37:03.386Z,27.90
2018-07-26T10:39:35.127Z,27.90
2018-07-26T10:42:04.692Z,27.70
2018-07-26T10:44:34.258Z,27.80
2018-07-26T10:47:03.873Z,27.90
2018-07-26T10:49:34.567Z,28.00
2018-07-26T10:52:04.641Z,28.10
2018-07-26T10:54:34.154Z,28.20
2018-07-26T10:57:03.635Z,28.20
2018-07-26T10:59:35.527Z,28.30
2018-07-26T11:02:08.449Z,28.30
2018-07-26T11:04:37.922Z,28.30
2018-07-26T11:07:07.564Z,28.40
2018-07-26T11:09:37.253Z,28.40
2018-07-26T11:12:06.681Z,28.50
2018-07-26T11:14:36.519Z,28.50
2018-07-26T11:17:05.919Z,28.50
2018-07-26T11:19:35.306Z,28.50
2018-07-26T11:24:45.334Z,28.50
2018-07-26T11:27:15.004Z,28.50
2018-07-26T11:29:44.462Z,28.40
2018-07-26T11:32:14.000Z,28.50
2018-07-26T11:34:43.452Z,28.50
2018-07-26T11:37:12.991Z,28.50
2018-07-26T11:39:42.402Z,28.30
2018-07-26T11:42:11.819Z,28.40
2018-07-26T11:44:41.440Z,28.40
2018-07-26T11:47:11.043Z,28.50
2018-07-26T11:49:40.588Z,28.50
2018-07-26T11:52:10.182Z,28.60
2018-07-26T11:54:39.839Z,28.70
2018-07-26T11:57:20.224Z,28.70
2018-07-26T11:59:49.785Z,28.80
2018-07-26T12:02:19.589Z,28.80
2018-07-26T12:07:34.588Z,28.90
2018-07-26T12:10:04.274Z,28.80
2018-07-26T12:12:40.156Z,28.90
2018-07-26T12:15:09.757Z,28.90
2018-07-26T12:17:40.095Z,28.90
2018-07-26T12:20:09.720Z,28.90
2018-07-26T12:22:39.238Z,28.90
2018-07-26T12:28:00.311Z,29.00
2018-07-26T12:30:31.681Z,29.00
2018-07-26T12:33:01.587Z,29.00
2018-07-26T12:35:32.016Z,29.00
2018-07-26T12:38:02.386Z,29.00
2018-07-26T12:40:32.351Z,28.90
2018-07-26T12:43:08.931Z,29.00
2018-07-26T12:45:38.503Z,28.90
2018-07-26T12:48:10.803Z,28.90
2018-07-26T12:53:35.771Z,28.90
2018-07-26T12:56:05.577Z,29.00
2018-07-26T12:58:35.700Z,28.90
2018-07-26T13:01:08.113Z,29.00
2018-07-26T13:04:12.566Z,29.00
2018-07-26T13:06:42.358Z,29.10
2018-07-26T13:09:14.099Z,29.10
2018-07-26T13:11:44.718Z,29.10
2018-07-26T13:14:23.042Z,29.20
2018-07-26T13:16:53.371Z,29.20
2018-07-26T13:19:22.965Z,29.30
2018-07-26T13:22:05.735Z,29.30
2018-07-26T13:24:35.547Z,29.30
2018-07-26T13:27:05.941Z,29.40
2018-07-26T13:32:43.607Z,29.40
2018-07-26T13:35:14.130Z,29.40
2018-07-26T13:37:43.804Z,29.50
2018-07-26T13:40:13.914Z,29.50
2018-07-26T13:42:44.065Z,29.60
2018-07-26T13:45:13.879Z,29.60
2018-07-26T13:47:43.833Z,29.60
2018-07-26T13:50:13.692Z,29.50
2018-07-26T13:52:43.613Z,29.60
2018-07-26T13:55:13.129Z,29.50
2018-07-26T13:57:44.029Z,29.50
2018-07-26T14:00:15.231Z,29.50
2018-07-26T14:02:45.907Z,29.50
2018-07-26T14:05:15.924Z,29.60
2018-07-26T14:07:45.844Z,29.60
2018-07-26T14:10:17.108Z,29.60
2018-07-26T14:12:47.267Z,29.60
2018-07-26T14:15:17.286Z,29.60
2018-07-26T14:17:47.105Z,29.60
2018-07-26T14:20:19.867Z,29.50
2018-07-26T14:22:49.717Z,29.50
2018-07-26T14:25:19.629Z,29.60
2018-07-26T14:27:52.056Z,29.60
2018-07-26T14:30:32.203Z,29.50
2018-07-26T14:33:02.269Z,29.50
2018-07-26T14:35:35.409Z,29.60
2018-07-26T14:38:18.288Z,29.60
2018-07-26T14:41:12.343Z,29.60
2018-07-26T14:43:49.711Z,29.60
2018-07-26T14:46:23.434Z,29.70
2018-07-26T14:48:53.288Z,29.70
2018-07-26T14:51:22.938Z,29.70
2018-07-26T14:53:52.851Z,29.60
2018-07-26T14:56:27.322Z,29.70
2018-07-26T14:58:57.403Z,29.70
2018-07-26T15:01:27.287Z,29.70
2018-07-26T15:03:57.369Z,29.70
2018-07-26T15:06:27.318Z,29.70
2018-07-26T15:09:18.852Z,29.80
2018-07-26T15:12:01.707Z,29.80
2018-07-26T15:14:49.311Z,29.90
2018-07-26T15:17:19.511Z,29.90
2018-07-26T15:22:29.289Z,29.90
2018-07-26T15:24:59.213Z,29.90
2018-07-26T15:27:29.009Z,29.90
2018-07-26T15:29:59.314Z,29.90
2018-07-26T15:32:40.309Z,29.90
2018-07-26T15:38:18.965Z,29.90
2018-07-26T15:40:49.406Z,29.90
2018-07-26T15:43:30.378Z,29.90
2018-07-26T15:46:00.636Z,29.90
2018-07-26T15:48:30.708Z,29.80
2018-07-26T15:51:00.604Z,29.80
2018-07-26T15:53:30.591Z,29.80
2018-07-26T15:56:02.197Z,29.80
2018-07-26T15:58:32.331Z,29.70
2018-07-26T16:01:02.316Z,29.70
2018-07-26T16:03:39.119Z,29.70
2018-07-26T16:06:15.894Z,29.60
2018-07-26T16:08:45.957Z,29.60
2018-07-26T16:11:16.151Z,29.60
2018-07-26T16:13:48.675Z,29.60
2018-07-26T16:16:20.687Z,29.50
2018-07-26T16:18:50.963Z,29.40
2018-07-26T16:21:21.388Z,29.40
2018-07-26T16:23:53.951Z,29.40
2018-07-26T16:26:24.014Z,29.40
2018-07-26T16:28:54.020Z,29.40
2018-07-26T16:31:24.037Z,29.40
2018-07-26T16:33:54.242Z,29.50
2018-07-26T16:36:24.144Z,29.50
2018-07-26T16:39:00.667Z,29.50
2018-07-26T16:41:30.493Z,29.50
2018-07-26T16:44:00.388Z,29.50
2018-07-26T16:46:30.318Z,29.50
2018-07-26T16:49:00.899Z,29.50
2018-07-26T16:51:30.681Z,29.50
2018-07-26T16:54:00.780Z,29.40
2018-07-26T16:56:30.937Z,29.40
2018-07-26T16:59:00.935Z,29.40
2018-07-26T17:01:30.900Z,29.30
2018-07-26T17:04:01.133Z,29.30
2018-07-26T17:06:31.223Z,29.20
2018-07-26T17:09:01.438Z,29.20
2018-07-26T17:11:32.226Z,29.20
2018-07-26T17:14:02.648Z,29.10
2018-07-26T17:16:32.800Z,29.10
2018-07-26T17:19:03.281Z,29.10
2018-07-26T17:21:33.139Z,29.10
2018-07-26T17:24:04.317Z,29.10
2018-07-26T17:26:36.718Z,29.20
2018-07-26T17:29:06.851Z,29.20
2018-07-26T17:31:51.849Z,29.20
2018-07-26T17:34:21.730Z,29.20
2018-07-26T17:36:53.389Z,29.30
2018-07-26T17:39:23.669Z,29.20
2018-07-26T17:41:54.005Z,29.30
2018-07-26T17:44:23.951Z,29.30
2018-07-26T17:46:53.928Z,29.30
2018-07-26T17:49:24.624Z,29.30
2018-07-26T17:51:55.681Z,29.30
2018-07-26T17:54:25.654Z,29.30
2018-07-26T17:56:55.703Z,29.30
2018-07-26T17:59:25.719Z,29.30
2018-07-26T18:01:55.615Z,29.30
2018-07-26T18:04:25.731Z,29.30
2018-07-26T18:06:55.971Z,29.30
2018-07-26T18:09:25.819Z,29.30
2018-07-26T18:11:55.482Z,29.30
2018-07-26T18:14:25.350Z,29.30
2018-07-26T18:16:55.159Z,29.30
2018-07-26T18:19:24.987Z,29.20
2018-07-26T18:21:54.682Z,29.10
2018-07-26T18:24:24.461Z,29.10
2018-07-26T18:26:54.109Z,29.00
2018-07-26T18:29:23.940Z,28.90
2018-07-26T18:31:53.615Z,28.90
2018-07-26T18:34:23.419Z,28.90
2018-07-26T18:36:53.406Z,28.80
2018-07-26T18:39:23.104Z,28.70
2018-07-26T18:41:53.131Z,28.70
2018-07-26T18:44:22.772Z,28.70
2018-07-26T18:46:52.598Z,28.60
2018-07-26T18:52:26.478Z,28.50
2018-07-26T18:54:56.029Z,28.50
2018-07-26T18:57:25.913Z,28.40
2018-07-26T18:59:55.506Z,28.30
2018-07-26T19:02:25.762Z,28.30
2018-07-26T19:04:55.477Z,28.20
2018-07-26T19:07:29.270Z,28.20
2018-07-26T19:09:58.833Z,28.10
2018-07-26T19:12:28.420Z,28.00
2018-07-26T19:14:58.150Z,28.00
2018-07-26T19:17:27.849Z,27.90
2018-07-26T19:19:57.353Z,27.80
2018-07-26T19:22:27.062Z,27.70
2018-07-26T19:24:57.507Z,27.70
2018-07-26T19:27:28.591Z,27.60
2018-07-26T19:30:04.535Z,27.60
2018-07-26T19:32:40.353Z,27.50
2018-07-26T19:35:11.379Z,27.50
2018-07-26T19:37:41.219Z,27.40
2018-07-26T19:40:12.639Z,27.30
2018-07-26T19:42:42.131Z,27.30
2018-07-26T19:45:12.452Z,27.20
2018-07-26T19:47:41.959Z,27.20
2018-07-26T19:50:11.573Z,27.10
2018-07-26T19:52:41.398Z,27.10
2018-07-26T19:55:12.691Z,27.00
2018-07-26T19:57:42.249Z,27.00
2018-07-26T20:00:11.925Z,26.90
2018-07-26T20:02:41.520Z,26.90
2018-07-26T20:05:11.064Z,26.80
2018-07-26T20:07:41.038Z,26.80
2018-07-26T20:10:12.453Z,26.70
2018-07-26T20:12:42.546Z,26.70
2018-07-26T20:15:12.291Z,26.70
2018-07-26T20:17:41.863Z,26.60
2018-07-26T20:20:12.333Z,26.60
2018-07-26T20:22:44.046Z,26.50
2018-07-26T20:25:13.513Z,26.50
2018-07-26T20:27:43.006Z,26.40
2018-07-26T20:30:12.853Z,26.40
2018-07-26T20:32:42.593Z,26.40
2018-07-26T20:35:12.180Z,26.30
2018-07-26T20:37:41.822Z,26.20
2018-07-26T20:40:11.793Z,26.20
2018-07-26T20:42:41.857Z,26.10
2018-07-26T20:45:12.410Z,26.10
2018-07-26T20:47:41.874Z,26.10
2018-07-26T20:50:11.648Z,26.00
2018-07-26T20:52:41.484Z,26.00
2018-07-26T20:55:11.311Z,25.90
2018-07-26T20:57:40.797Z,25.90
2018-07-26T21:00:12.879Z,25.80
2018-07-26T21:02:43.222Z,25.80
2018-07-26T21:05:12.971Z,25.80
2018-07-26T21:07:42.415Z,25.70
2018-07-26T21:10:12.659Z,25.70
2018-07-26T21:12:42.146Z,25.60
2018-07-26T21:15:11.855Z,25.60
2018-07-26T21:17:41.357Z,25.60
2018-07-26T21:20:11.092Z,25.50
2018-07-26T21:22:40.825Z,25.50
2018-07-26T21:25:10.347Z,25.40
2018-07-26T21:27:39.914Z,25.40
2018-07-26T21:30:09.686Z,25.40
2018-07-26T21:32:39.424Z,25.40
2018-07-26T21:35:09.111Z,25.30
2018-07-26T21:37:38.620Z,25.30
2018-07-26T21:40:08.437Z,25.20
2018-07-26T21:42:38.304Z,25.20
2018-07-26T21:45:08.286Z,25.20
2018-07-26T21:47:37.978Z,25.00
2018-07-26T21:50:07.557Z,25.00
2018-07-26T21:52:37.083Z,25.00
2018-07-26T21:55:06.701Z,25.00
2018-07-26T21:57:36.153Z,25.00
2018-07-26T22:00:09.790Z,25.00
2018-07-26T22:02:39.407Z,25.00
2018-07-26T22:05:09.137Z,25.00
2018-07-26T22:07:38.894Z,24.90
2018-07-26T22:10:08.706Z,24.90
2018-07-26T22:12:38.212Z,24.90
2018-07-26T22:15:08.005Z,24.80
2018-07-26T22:17:37.807Z,24.60
2018-07-26T22:20:07.364Z,24.60
2018-07-26T22:22:36.967Z,24.60
2018-07-26T22:25:06.816Z,24.60
2018-07-26T22:30:22.559Z,24.60
2018-07-26T22:32:52.116Z,24.60
2018-07-26T22:35:23.042Z,24.60
2018-07-26T22:37:52.762Z,24.60
2018-07-26T22:40:22.370Z,24.50
2018-07-26T22:42:51.919Z,24.50
2018-07-26T22:45:21.804Z,24.50
2018-07-26T22:47:51.520Z,24.20
2018-07-26T22:50:21.096Z,24.20
2018-07-26T22:52:50.796Z,24.20
2018-07-26T22:55:20.568Z,24.30
2018-07-26T22:57:50.004Z,24.30
2018-07-26T23:00:19.616Z,24.30
2018-07-26T23:02:49.180Z,24.30
2018-07-26T23:05:18.936Z,24.30
2018-07-26T23:07:48.404Z,24.20
2018-07-26T23:10:17.842Z,24.20
2018-07-26T23:12:47.501Z,24.20
2018-07-26T23:15:17.181Z,24.20
2018-07-26T23:17:47.014Z,24.10
2018-07-26T23:20:16.457Z,24.10
2018-07-26T23:22:46.285Z,24.10
2018-07-26T23:25:15.739Z,24.00
2018-07-26T23:27:45.189Z,24.00
2018-07-26T23:30:14.736Z,24.00
2018-07-26T23:32:44.400Z,24.00
2018-07-26T23:35:13.906Z,23.90
2018-07-26T23:37:43.538Z,23.90
2018-07-26T23:40:13.171Z,23.90
2018-07-26T23:42:42.899Z,23.80
2018-07-26T23:45:12.664Z,23.90
2018-07-26T23:47:42.136Z,23.80
2018-07-26T23:50:11.628Z,23.80
2018-07-26T23:52:41.257Z,23.80
2018-07-26T23:55:10.933Z,23.70
2018-07-26T23:57:40.465Z,23.70
